^^

..:: Storico WU ::..




Lo storico viene creato da WUnderground con i dati che la stazione Meteomincio invia al loro server. L' aggiornamento viene fatto ogni 5 minuti circa, tuttavia possono esserci intervalli pił ampi a causa di errori, interruzioni di servizio o problemi nell' invio tramite FTP.


Storico stazione MeteoMincio
Giorno Sommario per Agosto 26, 2022 Unità:  Inglese    Metrico   Entrambi
Giorno Settimana Mese Anno
  Max: Min: Media:
Temperatura: 89.6 °F 71.6 °F 80.2 °F
Dew Point: 73.4 °F 66.2 °F 69.6 °F
Umidità: 86% 55% 71%
Velocità vento: 6.2mph 0mph 2.7mph
Raffica: 8.1mph - -
Direzione- - ESE
Pressione: 29.9 in 29.8 in -
Precipitazioni: 0 in    
 
 
Tabulato Dati per Agosto 26, 2022
Ora Temperatura Dew Point Pressione Direzione Velocità vento Raffica Umidità Intensità pioggia (oraria) Info solare Situazione
00:04 75.2 °F 68 °F 29.9 in Calm     77% 0 in 0.00 W/m2 unknown
00:09 75.2 °F 68 °F 29.9 in ESE 1.2 mph 2.5 mph 77% 0 in 0.00 W/m2 unknown
00:14 75.2 °F 68 °F 29.9 in ESE 1.2 mph 2.5 mph 78% 0 in 0.00 W/m2 unknown
00:19 73.4 °F 66.2 °F 29.9 in ESE 1.2 mph 2.5 mph 76% 0 in 0.00 W/m2 unknown
00:24 73.4 °F 66.2 °F 29.9 in East 1.9 mph 2.5 mph 76% 0 in 0.00 W/m2 unknown
00:29 73.4 °F 66.2 °F 29.9 in NNE 1.9 mph 2.5 mph 76% 0 in 0.00 W/m2 unknown
00:34 73.4 °F 66.2 °F 29.9 in NNE 1.2 mph 2.5 mph 77% 0 in 0.00 W/m2 unknown
00:39 73.4 °F 66.2 °F 29.9 in NNE 1.9 mph 3.7 mph 77% 0 in 0.00 W/m2 unknown
00:44 75.2 °F 66.2 °F 29.9 in NNE 1.2 mph 3.1 mph 77% 0 in 0.00 W/m2 unknown
00:49 75.2 °F 66.2 °F 29.9 in NNE 2.5 mph 3.7 mph 78% 0 in 0.00 W/m2 unknown
00:54 73.4 °F 68 °F 29.9 in NE 2.5 mph 3.7 mph 79% 0 in 0.00 W/m2 unknown
00:59 73.4 °F 68 °F 29.9 in NNE 2.5 mph 3.7 mph 80% 0 in 0.00 W/m2 unknown
01:04 73.4 °F 68 °F 29.9 in NE 2.5 mph 3.7 mph 80% 0 in 0.00 W/m2 unknown
01:09 73.4 °F 68 °F 29.9 in NE 2.5 mph 3.7 mph 79% 0 in 0.00 W/m2 unknown
01:14 73.4 °F 68 °F 29.9 in NNE 3.1 mph 3.7 mph 79% 0 in 0.00 W/m2 unknown
01:19 73.4 °F 68 °F 29.9 in NNE 1.9 mph 3.7 mph 79% 0 in 0.00 W/m2 unknown
01:24 73.4 °F 68 °F 29.9 in NNE 1.9 mph 3.7 mph 79% 0 in 0.00 W/m2 unknown
01:29 75.2 °F 66.2 °F 29.9 in North 3.1 mph 3.7 mph 78% 0 in 0.00 W/m2 unknown
01:34 73.4 °F 68 °F 29.9 in North 3.1 mph 3.7 mph 79% 0 in 0.00 W/m2 unknown
01:39 73.4 °F 66.2 °F 29.9 in North 3.1 mph 3.7 mph 78% 0 in 0.00 W/m2 unknown
01:44 73.4 °F 66.2 °F 29.9 in North 5.6 mph 6.8 mph 78% 0 in 0.00 W/m2 unknown
01:49 75.2 °F 66.2 °F 29.9 in North 5 mph 6.8 mph 78% 0 in 0.00 W/m2 unknown
01:54 75.2 °F 66.2 °F 29.9 in North 3.7 mph 6.2 mph 77% 0 in 0.00 W/m2 unknown
01:59 75.2 °F 66.2 °F 29.9 in North 4.3 mph 6.2 mph 77% 0 in 0.00 W/m2 unknown
02:04 75.2 °F 68 °F 29.9 in North 4.3 mph 6.8 mph 77% 0 in 0.00 W/m2 unknown
02:09 75.2 °F 66.2 °F 29.9 in North 4.3 mph 6.2 mph 76% 0 in 0.00 W/m2 unknown
02:14 75.2 °F 68 °F 29.9 in NNE 4.3 mph 6.8 mph 77% 0 in 0.00 W/m2 unknown
02:19 75.2 °F 68 °F 29.9 in NNE 5 mph 6.8 mph 77% 0 in 0.00 W/m2 unknown
02:24 75.2 °F 68 °F 29.9 in NNE 5 mph 6.8 mph 78% 0 in 0.00 W/m2 unknown
02:29 75.2 °F 68 °F 29.9 in NNE 5 mph 6.8 mph 78% 0 in 0.00 W/m2 unknown
02:34 75.2 °F 68 °F 29.9 in NE 5 mph 6.8 mph 79% 0 in 0.00 W/m2 unknown
02:39 75.2 °F 68 °F 29.9 in NE 6.2 mph 8.1 mph 80% 0 in 0.00 W/m2 unknown
02:44 75.2 °F 68 °F 29.9 in NE 5.6 mph 8.1 mph 81% 0 in 0.00 W/m2 unknown
02:49 75.2 °F 68 °F 29.9 in NE 6.2 mph 8.1 mph 81% 0 in 0.00 W/m2 unknown
02:54 75.2 °F 68 °F 29.9 in NNE 5.6 mph 6.8 mph 81% 0 in 0.00 W/m2 unknown
02:59 75.2 °F 68 °F 29.9 in NNE 6.2 mph 6.8 mph 81% 0 in 0.00 W/m2 unknown
03:04 75.2 °F 68 °F 29.9 in NNE 4.3 mph 6.2 mph 81% 0 in 0.00 W/m2 unknown
03:09 75.2 °F 68 °F 29.9 in NNE 3.7 mph 6.2 mph 81% 0 in 0.00 W/m2 unknown
03:14 75.2 °F 68 °F 29.9 in NNE 3.1 mph 5 mph 81% 0 in 0.00 W/m2 unknown
03:19 75.2 °F 68 °F 29.9 in NE 3.7 mph 5 mph 81% 0 in 0.00 W/m2 unknown
03:24 75.2 °F 68 °F 29.9 in NE 3.7 mph 5 mph 81% 0 in 0.00 W/m2 unknown
03:29 75.2 °F 68 °F 29.9 in NE 3.7 mph 5 mph 81% 0 in 0.00 W/m2 unknown
03:34 75.2 °F 68 °F 29.9 in NE 2.5 mph 5 mph 81% 0 in 0.00 W/m2 unknown
03:39 75.2 °F 68 °F 29.9 in NE 2.5 mph 3.7 mph 81% 0 in 0.00 W/m2 unknown
03:44 75.2 °F 68 °F 29.9 in NNE 1.9 mph 3.7 mph 81% 0 in 0.00 W/m2 unknown
03:49 75.2 °F 68 °F 29.9 in NNE 2.5 mph 4.3 mph 81% 0 in 0.00 W/m2 unknown
03:54 75.2 °F 68 °F 29.9 in NNE 2.5 mph 5 mph 81% 0 in 0.00 W/m2 unknown
03:59 75.2 °F 68 °F 29.9 in North 1.9 mph 3.7 mph 81% 0 in 0.00 W/m2 unknown
04:04 75.2 °F 68 °F 29.9 in North 1.9 mph 3.7 mph 81% 0 in 0.00 W/m2 unknown
04:09 75.2 °F 68 °F 29.9 in NNW 1.9 mph 3.1 mph 81% 0 in 0.00 W/m2 unknown
04:14 75.2 °F 68 °F 29.9 in NNE 1.9 mph 3.7 mph 81% 0 in 0.00 W/m2 unknown
04:19 75.2 °F 68 °F 29.9 in NNE 3.1 mph 3.7 mph 81% 0 in 0.00 W/m2 unknown
04:24 75.2 °F 68 °F 29.9 in NE 3.1 mph 3.7 mph 80% 0 in 0.00 W/m2 unknown
04:29 75.2 °F 68 °F 29.9 in NE 3.1 mph 3.7 mph 81% 0 in 0.00 W/m2 unknown
04:34 75.2 °F 68 °F 29.9 in NE 3.7 mph 3.7 mph 81% 0 in 0.00 W/m2 unknown
04:39 73.4 °F 68 °F 29.9 in ENE 4.3 mph 6.2 mph 82% 0 in 0.00 W/m2 unknown
04:44 73.4 °F 68 °F 29.9 in NE 5 mph 6.2 mph 82% 0 in 0.00 W/m2 unknown
04:49 73.4 °F 68 °F 29.9 in NE 3.1 mph 3.7 mph 82% 0 in 0.00 W/m2 unknown
04:54 73.4 °F 68 °F 29.9 in ENE 5 mph 6.8 mph 83% 0 in 0.00 W/m2 unknown
04:59 73.4 °F 68 °F 29.9 in NE 5 mph 6.8 mph 83% 0 in 0.00 W/m2 unknown
05:04 73.4 °F 68 °F 29.9 in NE 3.7 mph 5 mph 83% 0 in 0.00 W/m2 unknown
05:09 73.4 °F 68 °F 29.9 in NE 3.1 mph 5 mph 83% 0 in 0.00 W/m2 unknown
05:14 73.4 °F 68 °F 29.9 in NE 3.1 mph 5 mph 83% 0 in 0.00 W/m2 unknown
05:19 73.4 °F 68 °F 29.9 in NE 3.7 mph 3.7 mph 83% 0 in 0.00 W/m2 unknown
05:24 73.4 °F 68 °F 29.8 in NE 3.7 mph 5 mph 83% 0 in 0.00 W/m2 unknown
05:29 73.4 °F 68 °F 29.8 in NE 3.7 mph 5 mph 83% 0 in 0.00 W/m2 unknown
05:34 73.4 °F 68 °F 29.8 in NE 3.7 mph 5 mph 83% 0 in 0.00 W/m2 unknown
05:39 73.4 °F 68 °F 29.8 in NNE 3.1 mph 5 mph 83% 0 in 0.00 W/m2 unknown
05:44 73.4 °F 68 °F 29.8 in North 3.1 mph 5 mph 84% 0 in 0.00 W/m2 unknown
05:49 73.4 °F 68 °F 29.8 in NE 3.7 mph 5 mph 84% 0 in 0.00 W/m2 unknown
05:54 73.4 °F 68 °F 29.8 in NNE 3.7 mph 6.2 mph 84% 0 in 0.00 W/m2 unknown
05:59 73.4 °F 68 °F 29.8 in NNE 4.3 mph 6.2 mph 84% 0 in 0.00 W/m2 unknown
06:04 73.4 °F 68 °F 29.8 in NNE 3.1 mph 6.2 mph 84% 0 in 0.00 W/m2 unknown
06:09 73.4 °F 68 °F 29.8 in NE 3.1 mph 5 mph 85% 0 in 0.00 W/m2 unknown
06:14 73.4 °F 68 °F 29.8 in NE 3.1 mph 5 mph 85% 0 in 0.00 W/m2 unknown
06:19 73.4 °F 68 °F 29.8 in NE 2.5 mph 3.7 mph 85% 0 in 0.00 W/m2 unknown
06:24 73.4 °F 68 °F 29.8 in NE 2.5 mph 3.7 mph 86% 0 in 0.00 W/m2 unknown
06:29 73.4 °F 68 °F 29.8 in ENE 1.9 mph 3.7 mph 86% 0 in 0.00 W/m2 unknown
06:34 71.6 °F 68 °F 29.8 in ENE 2.5 mph 3.7 mph 86% 0 in 5.00 W/m2 unknown
06:39 71.6 °F 68 °F 29.8 in NE 3.1 mph 5 mph 86% 0 in 9.00 W/m2 unknown
06:44 71.6 °F 68 °F 29.8 in NE 3.1 mph 5 mph 86% 0 in 14.00 W/m2 unknown
06:49 71.6 °F 68 °F 29.8 in NNE 2.5 mph 5 mph 86% 0 in 19.00 W/m2 unknown
06:54 71.6 °F 68 °F 29.8 in NNE 1.2 mph 3.1 mph 86% 0 in 26.00 W/m2 unknown
06:59 73.4 °F 68 °F 29.8 in NNE 1.2 mph 2.5 mph 86% 0 in 32.00 W/m2 unknown
07:04 73.4 °F 68 °F 29.8 in NNE 1.9 mph 3.7 mph 85% 0 in 35.00 W/m2 unknown
07:09 73.4 °F 68 °F 29.9 in North 2.5 mph 3.7 mph 85% 0 in 37.00 W/m2 unknown
07:14 73.4 °F 68 °F 29.9 in North 2.5 mph 3.7 mph 85% 0 in 40.00 W/m2 unknown
07:19 73.4 °F 68 °F 29.9 in NNW 2.5 mph 3.7 mph 85% 0 in 44.00 W/m2 unknown
07:24 73.4 °F 68 °F 29.9 in NNW 1.2 mph 3.1 mph 85% 0 in 47.00 W/m2 unknown
07:29 73.4 °F 68 °F 29.9 in NNW 1.2 mph 2.5 mph 85% 0 in 53.00 W/m2 unknown
07:34 73.4 °F 68 °F 29.9 in North 1.2 mph 2.5 mph 84% 0 in 60.00 W/m2 unknown
07:39 73.4 °F 68 °F 29.9 in NNW 1.9 mph 2.5 mph 84% 0 in 69.00 W/m2 unknown
07:44 73.4 °F 68 °F 29.9 in North 1.9 mph 2.5 mph 83% 0 in 79.00 W/m2 unknown
07:49 73.4 °F 69.8 °F 29.9 in NNE 1.9 mph 2.5 mph 84% 0 in 88.00 W/m2 unknown
07:54 75.2 °F 69.8 °F 29.9 in NNE 1.9 mph 3.7 mph 84% 0 in 105.00 W/m2 unknown
07:59 75.2 °F 69.8 °F 29.9 in NNE 2.5 mph 3.7 mph 83% 0 in 118.00 W/m2 unknown
08:04 75.2 °F 69.8 °F 29.9 in North 1.2 mph 3.7 mph 81% 0 in 134.00 W/m2 unknown
08:09 75.2 °F 69.8 °F 29.9 in North 1.2 mph 3.7 mph 81% 0 in 149.00 W/m2 unknown
08:14 77 °F 69.8 °F 29.9 in Calm   1.2 mph 79% 0 in 162.00 W/m2 unknown
08:19 77 °F 69.8 °F 29.9 in NW 0.6 mph 1.2 mph 79% 0 in 176.00 W/m2 unknown
08:24 77 °F 69.8 °F 29.9 in WSW 1.9 mph 3.7 mph 79% 0 in 190.00 W/m2 unknown
08:29 77 °F 69.8 °F 29.9 in SW 3.1 mph 3.7 mph 80% 0 in 200.00 W/m2 unknown
08:34 77 °F 69.8 °F 29.9 in WSW 2.5 mph 3.7 mph 80% 0 in 207.00 W/m2 unknown
08:39 77 °F 69.8 °F 29.9 in West 1.9 mph 3.7 mph 79% 0 in 225.00 W/m2 unknown
08:44 77 °F 69.8 °F 29.9 in West 1.2 mph 2.5 mph 79% 0 in 239.00 W/m2 unknown
08:49 77 °F 69.8 °F 29.9 in South 1.2 mph 2.5 mph 78% 0 in 253.00 W/m2 unknown
08:54 77 °F 69.8 °F 29.9 in ESE 1.2 mph 2.5 mph 77% 0 in 265.00 W/m2 unknown
08:59 78.8 °F 69.8 °F 29.9 in East 1.2 mph 2.5 mph 76% 0 in 283.00 W/m2 unknown
09:04 78.8 °F 69.8 °F 29.9 in ESE 1.9 mph 2.5 mph 76% 0 in 294.00 W/m2 unknown
09:09 78.8 °F 69.8 °F 29.9 in East 1.9 mph 3.7 mph 74% 0 in 311.00 W/m2 unknown
09:14 78.8 °F 69.8 °F 29.9 in ESE 1.9 mph 3.7 mph 75% 0 in 329.00 W/m2 unknown
09:19 78.8 °F 69.8 °F 29.9 in ESE 1.9 mph 3.7 mph 75% 0 in 339.00 W/m2 unknown
09:24 78.8 °F 69.8 °F 29.9 in East 2.5 mph 3.7 mph 74% 0 in 360.00 W/m2 unknown
09:29 78.8 °F 68 °F 29.9 in ESE 1.9 mph 3.7 mph 72% 0 in 371.00 W/m2 unknown
09:34 78.8 °F 69.8 °F 29.9 in SE 1.9 mph 3.7 mph 72% 0 in 392.00 W/m2 unknown
09:39 78.8 °F 69.8 °F 29.9 in SE 1.9 mph 3.7 mph 72% 0 in 404.00 W/m2 unknown
09:44 78.8 °F 68 °F 29.9 in SSW 1.2 mph 3.1 mph 71% 0 in 424.00 W/m2 unknown
09:49 78.8 °F 69.8 °F 29.9 in NE 2.5 mph 3.7 mph 71% 0 in 438.00 W/m2 unknown
09:54 78.8 °F 69.8 °F 29.9 in ENE 2.5 mph 3.7 mph 71% 0 in 450.00 W/m2 unknown
09:59 78.8 °F 69.8 °F 29.9 in ENE 2.5 mph 5 mph 70% 0 in 452.00 W/m2 unknown
10:04 80.6 °F 69.8 °F 29.9 in ENE 2.5 mph 5 mph 71% 0 in 424.00 W/m2 unknown
10:09 80.6 °F 69.8 °F 29.9 in East 3.1 mph 5 mph 71% 0 in 476.00 W/m2 unknown
10:14 80.6 °F 69.8 °F 29.9 in East 1.9 mph 3.7 mph 71% 0 in 487.00 W/m2 unknown
10:19 80.6 °F 69.8 °F 29.9 in ENE 3.1 mph 6.2 mph 72% 0 in 499.00 W/m2 unknown
10:24 80.6 °F 69.8 °F 29.9 in East 3.7 mph 6.2 mph 70% 0 in 503.00 W/m2 unknown
10:29 80.6 °F 69.8 °F 29.9 in East 3.7 mph 5.6 mph 70% 0 in 503.00 W/m2 unknown
10:34 80.6 °F 71.6 °F 29.9 in ENE 3.7 mph 6.2 mph 71% 0 in 519.00 W/m2 unknown
10:39 82.4 °F 69.8 °F 29.9 in East 4.3 mph 6.8 mph 70% 0 in 526.00 W/m2 unknown
10:44 82.4 °F 69.8 °F 29.9 in East 3.7 mph 6.8 mph 69% 0 in 561.00 W/m2 unknown
10:49 82.4 °F 71.6 °F 29.9 in ENE 3.1 mph 5 mph 70% 0 in 573.00 W/m2 unknown
10:54 82.4 °F 71.6 °F 29.9 in East 4.3 mph 6.2 mph 69% 0 in 585.00 W/m2 unknown
10:59 82.4 °F 71.6 °F 29.9 in ENE 5.6 mph 6.8 mph 67% 0 in 605.00 W/m2 unknown
11:04 82.4 °F 69.8 °F 29.9 in East 5.6 mph 8.1 mph 67% 0 in 612.00 W/m2 unknown
11:09 82.4 °F 69.8 °F 29.9 in ESE 5 mph 8.1 mph 66% 0 in 610.00 W/m2 unknown
11:14 84.2 °F 71.6 °F 29.9 in ESE 5 mph 6.8 mph 67% 0 in 548.00 W/m2 unknown
11:19 84.2 °F 71.6 °F 29.9 in ESE 4.3 mph 6.2 mph 66% 0 in 629.00 W/m2 unknown
11:24 84.2 °F 69.8 °F 29.9 in ESE 3.1 mph 6.2 mph 64% 0 in 638.00 W/m2 unknown
11:29 84.2 °F 69.8 °F 29.9 in East 3.1 mph 6.8 mph 64% 0 in 649.00 W/m2 unknown
11:34 84.2 °F 69.8 °F 29.9 in East 6.2 mph 8.1 mph 64% 0 in 659.00 W/m2 unknown
11:39 84.2 °F 69.8 °F 29.9 in ESE 5 mph 8.1 mph 64% 0 in 670.00 W/m2 unknown
11:44 84.2 °F 71.6 °F 29.9 in ENE 5 mph 6.8 mph 65% 0 in 682.00 W/m2 unknown
11:49 84.2 °F 71.6 °F 29.9 in ESE 3.1 mph 6.8 mph 65% 0 in 691.00 W/m2 unknown
11:54 86 °F 71.6 °F 29.9 in ESE 3.7 mph 5 mph 65% 0 in 701.00 W/m2 unknown
11:59 86 °F 71.6 °F 29.9 in ENE 5 mph 6.2 mph 64% 0 in 701.00 W/m2 unknown
12:04 86 °F 71.6 °F 29.9 in East 5 mph 6.2 mph 65% 0 in 701.00 W/m2 unknown
12:09 86 °F 71.6 °F 29.9 in ENE 3.7 mph 6.2 mph 64% 0 in 701.00 W/m2 unknown
12:14 86 °F 69.8 °F 29.8 in NE 3.7 mph 6.2 mph 62% 0 in 717.00 W/m2 unknown
12:19 86 °F 71.6 °F 29.8 in East 4.3 mph 6.2 mph 62% 0 in 742.00 W/m2 unknown
12:24 86 °F 71.6 °F 29.8 in ESE 5 mph 6.8 mph 62% 0 in 772.00 W/m2 unknown
12:29 86 °F 71.6 °F 29.8 in East 4.3 mph 6.8 mph 61% 0 in 772.00 W/m2 unknown
12:34 86 °F 69.8 °F 29.8 in ENE 3.7 mph 6.8 mph 61% 0 in 722.00 W/m2 unknown
12:39 86 °F 69.8 °F 29.8 in NE 2.5 mph 5 mph 61% 0 in 729.00 W/m2 unknown
12:44 86 °F 69.8 °F 29.8 in SE 3.7 mph 5 mph 60% 0 in 763.00 W/m2 unknown
12:49 86 °F 69.8 °F 29.8 in South 5 mph 6.8 mph 60% 0 in 773.00 W/m2 unknown
12:54 86 °F 69.8 °F 29.8 in ESE 5.6 mph 6.8 mph 60% 0 in 770.00 W/m2 unknown
12:59 86 °F 69.8 °F 29.8 in SE 5.6 mph 8.1 mph 58% 0 in 772.00 W/m2 unknown
13:04 86 °F 71.6 °F 29.8 in ESE 5 mph 8.1 mph 60% 0 in 772.00 W/m2 unknown
13:09 86 °F 69.8 °F 29.8 in East 4.3 mph 6.8 mph 59% 0 in 770.00 W/m2 unknown
13:14 86 °F 69.8 °F 29.8 in ENE 3.1 mph 5 mph 58% 0 in 779.00 W/m2 unknown
13:19 87.8 °F 69.8 °F 29.8 in East 3.1 mph 5 mph 58% 0 in 779.00 W/m2 unknown
13:24 87.8 °F 71.6 °F 29.8 in East 3.1 mph 5 mph 59% 0 in 793.00 W/m2 unknown
13:29 87.8 °F 71.6 °F 29.8 in ESE 3.7 mph 6.8 mph 59% 0 in 795.00 W/m2 unknown
13:34 86 °F 69.8 °F 29.8 in ESE 5 mph 6.8 mph 58% 0 in 812.00 W/m2 unknown
13:39 87.8 °F 69.8 °F 29.8 in East 5 mph 6.8 mph 57% 0 in 812.00 W/m2 unknown
13:44 87.8 °F 69.8 °F 29.8 in NE 4.3 mph 6.2 mph 58% 0 in 780.00 W/m2 unknown
13:49 87.8 °F 69.8 °F 29.8 in ESE 5 mph 6.2 mph 58% 0 in 789.00 W/m2 unknown
13:54 87.8 °F 69.8 °F 29.8 in East 4.3 mph 8.1 mph 57% 0 in 807.00 W/m2 unknown
13:59 87.8 °F 69.8 °F 29.8 in NE 4.3 mph 8.1 mph 57% 0 in 758.00 W/m2 unknown
14:04 87.8 °F 69.8 °F 29.8 in East 2.5 mph 3.7 mph 57% 0 in 647.00 W/m2 unknown
14:09 87.8 °F 71.6 °F 29.8 in ENE 2.5 mph 5 mph 59% 0 in 598.00 W/m2 unknown
14:14 87.8 °F 71.6 °F 29.8 in East 1.9 mph 5 mph 59% 0 in 640.00 W/m2 unknown
14:19 87.8 °F 69.8 °F 29.8 in ESE 3.7 mph 6.8 mph 57% 0 in 554.00 W/m2 unknown
14:24 87.8 °F 69.8 °F 29.8 in ESE 3.7 mph 6.8 mph 58% 0 in 520.00 W/m2 unknown
14:29 87.8 °F 69.8 °F 29.8 in SE 3.1 mph 6.8 mph 57% 0 in 729.00 W/m2 unknown
14:34 87.8 °F 69.8 °F 29.8 in South 3.1 mph 3.7 mph 57% 0 in 745.00 W/m2 unknown
14:39 87.8 °F 69.8 °F 29.8 in ESE 5 mph 8.1 mph 56% 0 in 745.00 W/m2 unknown
14:44 87.8 °F 69.8 °F 29.8 in ESE 5.6 mph 8.1 mph 57% 0 in 543.00 W/m2 unknown
14:49 87.8 °F 69.8 °F 29.8 in ESE 6.2 mph 8.1 mph 58% 0 in 517.00 W/m2 unknown
14:54 87.8 °F 69.8 °F 29.8 in South 5 mph 6.8 mph 58% 0 in 680.00 W/m2 unknown
14:59 87.8 °F 69.8 °F 29.8 in SE 3.1 mph 5 mph 56% 0 in 680.00 W/m2 unknown
15:04 87.8 °F 69.8 °F 29.8 in East 3.1 mph 5 mph 56% 0 in 766.00 W/m2 unknown
15:09 87.8 °F 69.8 °F 29.8 in East 3.7 mph 5 mph 56% 0 in 745.00 W/m2 unknown
15:14 87.8 °F 69.8 °F 29.8 in East 3.7 mph 5 mph 56% 0 in 670.00 W/m2 unknown
15:19 87.8 °F 69.8 °F 29.8 in East 3.7 mph 5 mph 56% 0 in 714.00 W/m2 unknown
15:24 87.8 °F 69.8 °F 29.8 in East 3.1 mph 5 mph 56% 0 in 714.00 W/m2 unknown
15:29 87.8 °F 69.8 °F 29.8 in East 3.7 mph 6.8 mph 55% 0 in 693.00 W/m2 unknown
15:34 87.8 °F 69.8 °F 29.8 in East 4.3 mph 6.8 mph 56% 0 in 647.00 W/m2 unknown
15:38 87.8 °F 69.8 °F 29.8 in East 5 mph 6.8 mph 56% 0 in 552.00 W/m2 unknown
15:44 87.8 °F 71.6 °F 29.8 in ENE 4.3 mph 6.2 mph 57% 0 in 494.00 W/m2 unknown
15:49 87.8 °F 71.6 °F 29.8 in East 3.1 mph 6.2 mph 58% 0 in 527.00 W/m2 unknown
15:54 87.8 °F 71.6 °F 29.8 in ESE 3.7 mph 5 mph 58% 0 in 490.00 W/m2 unknown
15:59 87.8 °F 69.8 °F 29.8 in East 3.1 mph 5 mph 56% 0 in 471.00 W/m2 unknown
16:04 87.8 °F 69.8 °F 29.8 in East 3.1 mph 5 mph 56% 0 in 487.00 W/m2 unknown
16:09 87.8 °F 71.6 °F 29.8 in East 3.7 mph 6.2 mph 58% 0 in 487.00 W/m2 unknown
16:14 87.8 °F 71.6 °F 29.8 in ESE 4.3 mph 6.2 mph 57% 0 in 408.00 W/m2 unknown
16:19 87.8 °F 71.6 °F 29.8 in East 4.3 mph 6.2 mph 59% 0 in 396.00 W/m2 unknown
16:24 87.8 °F 69.8 °F 29.8 in ENE 3.1 mph 6.2 mph 58% 0 in 369.00 W/m2 unknown
16:29 87.8 °F 69.8 °F 29.8 in East 3.1 mph 5 mph 58% 0 in 311.00 W/m2 unknown
16:34 87.8 °F 71.6 °F 29.8 in East 4.3 mph 5 mph 59% 0 in 330.00 W/m2 unknown
16:39 87.8 °F 71.6 °F 29.8 in ENE 3.7 mph 5 mph 60% 0 in 267.00 W/m2 unknown
16:44 86 °F 71.6 °F 29.8 in ENE 3.7 mph 5 mph 60% 0 in 239.00 W/m2 unknown
16:49 86 °F 71.6 °F 29.8 in ENE 3.7 mph 5 mph 60% 0 in 332.00 W/m2 unknown
16:54 87.8 °F 71.6 °F 29.8 in East 3.1 mph 3.7 mph 60% 0 in 571.00 W/m2 unknown
16:59 87.8 °F 71.6 °F 29.8 in NE 2.5 mph 5 mph 59% 0 in 601.00 W/m2 unknown
17:04 87.8 °F 71.6 °F 29.8 in NE 3.1 mph 5 mph 57% 0 in 598.00 W/m2 unknown
17:09 89.6 °F 71.6 °F 29.8 in NE 2.5 mph 5 mph 57% 0 in 571.00 W/m2 unknown
17:14 89.6 °F 71.6 °F 29.8 in ENE 2.5 mph 6.2 mph 56% 0 in 559.00 W/m2 unknown
17:19 89.6 °F 71.6 °F 29.8 in ENE 3.1 mph 6.2 mph 56% 0 in 540.00 W/m2 unknown
17:24 87.8 °F 69.8 °F 29.8 in ENE 3.7 mph 6.2 mph 56% 0 in 483.00 W/m2 unknown
17:29 87.8 °F 69.8 °F 29.8 in ENE 4.3 mph 6.2 mph 56% 0 in 285.00 W/m2 unknown
17:34 87.8 °F 69.8 °F 29.8 in NE 3.1 mph 6.2 mph 57% 0 in 267.00 W/m2 unknown
17:39 87.8 °F 69.8 °F 29.8 in ESE 1.9 mph 5 mph 57% 0 in 162.00 W/m2 unknown
17:44 87.8 °F 71.6 °F 29.8 in SE 1.9 mph 5 mph 59% 0 in 162.00 W/m2 unknown
17:49 87.8 °F 71.6 °F 29.8 in SSE 1.2 mph 3.7 mph 59% 0 in 162.00 W/m2 unknown
17:54 87.8 °F 69.8 °F 29.8 in South 1.9 mph 3.7 mph 58% 0 in 151.00 W/m2 unknown
17:59 86 °F 69.8 °F 29.8 in South 1.9 mph 3.7 mph 57% 0 in 114.00 W/m2 unknown
18:04 86 °F 71.6 °F 29.8 in ESE 1.2 mph 3.7 mph 60% 0 in 105.00 W/m2 unknown
18:09 86 °F 71.6 °F 29.8 in ENE 1.2 mph 2.5 mph 60% 0 in 111.00 W/m2 unknown
18:14 86 °F 71.6 °F 29.8 in East 1.2 mph 2.5 mph 60% 0 in 223.00 W/m2 unknown
18:19 86 °F 69.8 °F 29.8 in East 1.9 mph 3.7 mph 60% 0 in 271.00 W/m2 unknown
18:24 87.8 °F 69.8 °F 29.8 in East 1.9 mph 3.7 mph 58% 0 in 285.00 W/m2 unknown
18:29 87.8 °F 71.6 °F 29.8 in ESE 2.5 mph 3.7 mph 59% 0 in 285.00 W/m2 unknown
18:34 86 °F 71.6 °F 29.8 in ESE 2.5 mph 5 mph 62% 0 in 258.00 W/m2 unknown
18:39 86 °F 71.6 °F 29.8 in ESE 3.1 mph 5 mph 62% 0 in 207.00 W/m2 unknown
18:44 86 °F 71.6 °F 29.8 in SE 2.5 mph 5 mph 62% 0 in 190.00 W/m2 unknown
18:49 86 °F 71.6 °F 29.8 in ESE 2.5 mph 3.7 mph 61% 0 in 162.00 W/m2 unknown
18:54 86 °F 71.6 °F 29.8 in ESE 2.5 mph 3.7 mph 62% 0 in 130.00 W/m2 unknown
18:59 86 °F 71.6 °F 29.8 in ESE 2.5 mph 3.7 mph 62% 0 in 104.00 W/m2 unknown
19:04 86 °F 71.6 °F 29.8 in ESE 1.9 mph 3.7 mph 63% 0 in 90.00 W/m2 unknown
19:09 86 °F 71.6 °F 29.8 in ESE 1.2 mph 2.5 mph 63% 0 in 84.00 W/m2 unknown
19:14 86 °F 71.6 °F 29.8 in Calm   2.5 mph 62% 0 in 72.00 W/m2 unknown
19:19 86 °F 71.6 °F 29.8 in SSW 0.6 mph 2.5 mph 62% 0 in 72.00 W/m2 unknown
19:24 86 °F 71.6 °F 29.8 in SSW 0.6 mph 2.5 mph 62% 0 in 62.00 W/m2 unknown
19:29 86 °F 71.6 °F 29.8 in SSW 0.6 mph 2.5 mph 65% 0 in 54.00 W/m2 unknown
19:34 86 °F 73.4 °F 29.8 in Calm   1.2 mph 66% 0 in 54.00 W/m2 unknown
19:39 84.2 °F 71.6 °F 29.8 in Calm   1.2 mph 66% 0 in 46.00 W/m2 unknown
19:44 84.2 °F 71.6 °F 29.8 in Calm   1.2 mph 66% 0 in 33.00 W/m2 unknown
19:49 84.2 °F 71.6 °F 29.8 in Calm   1.2 mph 67% 0 in 21.00 W/m2 unknown
19:54 84.2 °F 71.6 °F 29.8 in Calm     69% 0 in 14.00 W/m2 unknown
19:59 82.4 °F 71.6 °F 29.8 in Calm     69% 0 in 9.00 W/m2 unknown
20:04 82.4 °F 71.6 °F 29.8 in Calm     69% 0 in 7.00 W/m2 unknown
20:09 82.4 °F 69.8 °F 29.8 in Calm     69% 0 in 0.00 W/m2 unknown
20:14 82.4 °F 69.8 °F 29.8 in Calm     70% 0 in 0.00 W/m2 unknown
20:19 80.6 °F 69.8 °F 29.8 in Calm     70% 0 in 0.00 W/m2 unknown
20:24 80.6 °F 69.8 °F 29.8 in Calm     71% 0 in 0.00 W/m2 unknown
20:29 80.6 °F 71.6 °F 29.8 in Calm     72% 0 in 0.00 W/m2 unknown
20:33 80.6 °F 71.6 °F 29.8 in Calm     72% 0 in 0.00 W/m2 unknown
20:37 80.6 °F 71.6 °F 29.8 in Calm     72% 0 in 0.00 W/m2 unknown
20:44 80.6 °F 71.6 °F 29.8 in Calm     72% 0 in 0.00 W/m2 unknown
20:49 80.6 °F 69.8 °F 29.8 in Calm     72% 0 in 0.00 W/m2 unknown
20:54 80.6 °F 71.6 °F 29.8 in Calm     73% 0 in 0.00 W/m2 unknown
20:59 80.6 °F 71.6 °F 29.8 in Calm     73% 0 in 0.00 W/m2 unknown
21:04 80.6 °F 71.6 °F 29.8 in Calm     74% 0 in 0.00 W/m2 unknown
21:09 80.6 °F 71.6 °F 29.8 in Calm     75% 0 in 0.00 W/m2 unknown
21:14 80.6 °F 71.6 °F 29.8 in Calm     75% 0 in 0.00 W/m2 unknown
21:19 80.6 °F 71.6 °F 29.8 in Calm     76% 0 in 0.00 W/m2 unknown
21:24 78.8 °F 71.6 °F 29.8 in Calm     76% 0 in 0.00 W/m2 unknown
21:29 78.8 °F 71.6 °F 29.8 in Calm     76% 0 in 0.00 W/m2 unknown
21:34 78.8 °F 71.6 °F 29.8 in Calm     76% 0 in 0.00 W/m2 unknown
21:39 78.8 °F 69.8 °F 29.8 in Calm     76% 0 in 0.00 W/m2 unknown
21:44 78.8 °F 69.8 °F 29.8 in Calm     76% 0 in 0.00 W/m2 unknown
21:49 78.8 °F 69.8 °F 29.8 in Calm     75% 0 in 0.00 W/m2 unknown
21:54 78.8 °F 69.8 °F 29.8 in Calm     74% 0 in 0.00 W/m2 unknown
21:59 78.8 °F 69.8 °F 29.8 in Calm     74% 0 in 0.00 W/m2 unknown
22:04 78.8 °F 69.8 °F 29.8 in Calm   2.5 mph 75% 0 in 0.00 W/m2 unknown
22:09 77 °F 69.8 °F 29.8 in SSW 0.6 mph 2.5 mph 77% 0 in 0.00 W/m2 unknown
22:14 77 °F 69.8 °F 29.8 in SSW 0.6 mph 1.9 mph 77% 0 in 0.00 W/m2 unknown
22:19 77 °F 69.8 °F 29.8 in SSW 0.6 mph 1.2 mph 77% 0 in 0.00 W/m2 unknown
22:24 77 °F 69.8 °F 29.8 in Calm   1.2 mph 77% 0 in 0.00 W/m2 unknown
22:29 77 °F 69.8 °F 29.8 in Calm   1.2 mph 77% 0 in 0.00 W/m2 unknown
22:34 77 °F 69.8 °F 29.8 in SSW 0.6 mph 1.2 mph 77% 0 in 0.00 W/m2 unknown
22:39 77 °F 69.8 °F 29.8 in SSW 0.6 mph 1.2 mph 77% 0 in 0.00 W/m2 unknown
22:44 77 °F 69.8 °F 29.8 in Calm   1.2 mph 78% 0 in 0.00 W/m2 unknown
22:49 77 °F 69.8 °F 29.8 in WSW 2.5 mph 3.7 mph 78% 0 in 0.00 W/m2 unknown
22:54 77 °F 69.8 °F 29.8 in WSW 2.5 mph 3.7 mph 79% 0 in 0.00 W/m2 unknown
22:59 77 °F 69.8 °F 29.8 in WSW 1.9 mph 3.1 mph 79% 0 in 0.00 W/m2 unknown
23:04 77 °F 69.8 °F 29.8 in WSW 1.9 mph 3.1 mph 78% 0 in 0.00 W/m2 unknown
23:09 77 °F 69.8 °F 29.8 in WSW 2.5 mph 3.7 mph 78% 0 in 0.00 W/m2 unknown
23:14 77 °F 69.8 °F 29.8 in WSW 2.5 mph 3.7 mph 78% 0 in 0.00 W/m2 unknown
23:19 77 °F 69.8 °F 29.8 in WSW 2.5 mph 3.7 mph 78% 0 in 0.00 W/m2 unknown
23:24 77 °F 69.8 °F 29.8 in WSW 2.5 mph 3.7 mph 78% 0 in 0.00 W/m2 unknown
23:29 77 °F 69.8 °F 29.8 in WSW 2.5 mph 3.7 mph 78% 0 in 0.00 W/m2 unknown
23:34 77 °F 69.8 °F 29.8 in WSW 2.5 mph 3.7 mph 79% 0 in 0.00 W/m2 unknown
23:39 77 °F 69.8 °F 29.8 in WSW 3.1 mph 3.7 mph 79% 0 in 0.00 W/m2 unknown
23:44 75.2 °F 69.8 °F 29.8 in WSW 2.5 mph 3.7 mph 80% 0 in 0.00 W/m2 unknown
23:49 75.2 °F 69.8 °F 29.8 in West 1.9 mph 3.7 mph 80% 0 in 0.00 W/m2 unknown
23:54 75.2 °F 69.8 °F 29.8 in WSW 1.9 mph 3.7 mph 80% 0 in 0.00 W/m2 unknown
23:59 75.2 °F 68 °F 29.8 in West 1.9 mph 3.7 mph 80% 0 in 0.00 W/m2 unknown
Stazione Meteorologica MeteoMincio Rivalta s/M (MN)
Con i complimenti di Weather Underground - 4 mb



METEO PILLOLE
I venti più violenti (escluso i tornado)
Mount Washington - New Hampshire
Il 12 aprile 1934 furono misurate raffiche a oltre 372 Km/h.
Share

Non seguire questo link o sarai bannato dal sito!